Time;durP1;ratioP1;P1;durP2;ratioP2;P2;SDS_P1;SDS_P2;PMS_P1;PMS_P2;Temp;Humidity;BMP_temperature;BMP_pressure;BME280_temperature;BME280_humidity;BME280_pressure;Samples;Min_cycle;Max_cycle;Signal;HPM_P1;HPM_P2
2021/03/29 00:02:16;;;;;;;1.88;0.52;;;11.80;99.90;;;;;;4976246;28;20158;-76
2021/03/29 00:04:42;;;;;;;1.08;0.40;;;11.80;99.90;;;;;;4980782;28;20235;-76
2021/03/29 00:07:09;;;;;;;1.23;0.70;;;11.70;99.90;;;;;;4980613;28;20197;-76
2021/03/29 00:09:37;;;;;;;1.95;1.55;;;11.70;99.90;;;;;;4980669;28;20195;-77
2021/03/29 00:12:05;;;;;;;3.65;0.75;;;11.60;99.90;;;;;;4980655;28;20165;-77
2021/03/29 00:14:32;;;;;;;0.70;0.70;;;11.60;99.90;;;;;;4980648;28;20256;-76
2021/03/29 00:16:58;;;;;;;1.55;0.95;;;11.50;99.90;;;;;;4980639;28;20220;-76
2021/03/29 00:19:26;;;;;;;8.90;1.75;;;11.60;99.90;;;;;;4980579;28;20158;-76
2021/03/29 00:21:51;;;;;;;0.40;0.40;;;11.60;99.90;;;;;;4980590;28;20265;-76
2021/03/29 00:24:17;;;;;;;0.47;0.47;;;11.60;99.90;;;;;;4980571;28;20240;-76
2021/03/29 00:26:43;;;;;;;1.45;0.90;;;11.60;99.90;;;;;;4980416;28;20293;-76
2021/03/29 00:29:09;;;;;;;0.50;0.50;;;11.60;99.90;;;;;;4980621;28;20182;-77
2021/03/29 00:31:35;;;;;;;0.55;0.55;;;11.70;99.90;;;;;;4980542;28;20660;-75
2021/03/29 00:34:02;;;;;;;0.47;0.40;;;11.60;99.90;;;;;;4980554;28;20178;-75
2021/03/29 00:36:28;;;;;;;1.00;0.85;;;11.60;99.90;;;;;;4980292;28;20217;-75
2021/03/29 00:38:56;;;;;;;19.40;0.85;;;11.50;99.90;;;;;;4980424;28;20244;-75
2021/03/29 00:41:23;;;;;;;3.08;0.88;;;11.60;99.90;;;;;;4980257;28;20170;-75
2021/03/29 00:43:49;;;;;;;2.60;1.63;;;11.60;99.90;;;;;;4962995;28;20536;-75
2021/03/29 00:46:17;;;;;;;3.95;0.63;;;11.50;99.90;;;;;;4980213;28;20222;-75
2021/03/29 00:48:45;;;;;;;0.73;0.73;;;11.40;99.90;;;;;;4963058;28;20232;-76
2021/03/29 00:51:13;;;;;;;1.02;1.02;;;11.50;99.90;;;;;;4980417;28;20170;-77
2021/03/29 00:53:43;;;;;;;0.38;0.38;;;11.60;99.90;;;;;;4980244;28;20173;-76
2021/03/29 00:56:09;;;;;;;1.90;1.00;;;11.50;99.90;;;;;;4980304;28;20194;-75
2021/03/29 00:58:35;;;;;;;0.93;0.93;;;11.40;99.90;;;;;;4980213;28;20177;-75
2021/03/29 01:01:07;;;;;;;0.50;0.50;;;11.40;99.90;;;;;;4980232;28;20181;-75
2021/03/29 01:03:34;;;;;;;0.88;0.88;;;11.40;99.90;;;;;;4980362;28;20192;-76
2021/03/29 01:06:04;;;;;;;0.52;0.47;;;11.40;99.90;;;;;;4980244;28;20165;-75
2021/03/29 01:08:31;;;;;;;0.63;0.63;;;11.40;99.90;;;;;;4980108;28;20599;-76
2021/03/29 01:10:59;;;;;;;0.52;0.52;;;11.40;99.90;;;;;;4980092;28;20169;-75
2021/03/29 01:13:26;;;;;;;0.30;0.30;;;11.40;99.90;;;;;;4978904;28;20172;-76
2021/03/29 01:15:55;;;;;;;7.20;2.22;;;11.40;99.90;;;;;;4976530;28;20668;-75
2021/03/29 01:18:23;;;;;;;1.83;1.73;;;11.40;99.90;;;;;;4959467;28;20198;-75
2021/03/29 01:21:13;;;;;;;0.82;0.38;;;11.40;99.90;;;;;;4977002;28;20700;-76
2021/03/29 01:23:39;;;;;;;0.70;0.57;;;11.50;99.90;;;;;;4976993;28;20173;-75
2021/03/29 01:26:43;;;;;;;0.30;0.30;;;11.50;99.90;;;;;;4976985;28;20204;-76
2021/03/29 01:29:10;;;;;;;2.65;0.95;;;11.60;99.90;;;;;;4976807;28;20162;-76
2021/03/29 01:31:37;;;;;;;0.57;0.57;;;11.60;99.90;;;;;;4976817;28;20625;-76
2021/03/29 01:34:05;;;;;;;0.30;0.30;;;11.60;99.90;;;;;;4976759;28;20170;-76
2021/03/29 01:36:31;;;;;;;1.13;1.08;;;11.60;99.90;;;;;;4976573;28;20313;-76
2021/03/29 01:38:58;;;;;;;0.45;0.45;;;11.50;99.90;;;;;;4976610;28;20249;-75
2021/03/29 01:41:24;;;;;;;1.15;0.45;;;11.50;99.90;;;;;;4976453;28;20181;-76
2021/03/29 01:43:50;;;;;;;0.25;0.25;;;11.50;99.90;;;;;;4976625;28;20170;-76
2021/03/29 01:46:19;;;;;;;0.95;0.88;;;11.50;99.90;;;;;;4976403;28;20221;-76
2021/03/29 01:48:45;;;;;;;0.30;0.30;;;11.40;99.90;;;;;;4976498;28;20200;-76
2021/03/29 01:51:13;;;;;;;0.22;0.22;;;11.30;99.90;;;;;;4976502;28;20189;-76
2021/03/29 01:53:40;;;;;;;0.40;0.40;;;11.30;99.90;;;;;;4976409;28;20253;-76
2021/03/29 01:56:06;;;;;;;0.22;0.22;;;11.40;99.90;;;;;;4976344;28;20720;-76
2021/03/29 01:58:32;;;;;;;0.52;0.52;;;11.40;99.90;;;;;;4958885;28;20189;-75
2021/03/29 02:01:00;;;;;;;1.77;0.65;;;11.50;99.90;;;;;;4958933;28;20657;-75
2021/03/29 02:03:26;;;;;;;10.68;0.70;;;11.30;99.90;;;;;;4958914;28;20648;-75
2021/03/29 02:05:53;;;;;;;0.20;0.20;;;11.30;99.90;;;;;;4976212;28;20167;-76
2021/03/29 02:08:21;;;;;;;0.30;0.30;;;11.30;99.90;;;;;;4976061;28;20261;-75
2021/03/29 02:10:48;;;;;;;1.10;1.10;;;11.30;99.90;;;;;;4976133;28;20194;-75
2021/03/29 02:13:19;;;;;;;1.13;0.90;;;11.40;99.90;;;;;;4976109;28;20170;-75
2021/03/29 02:15:47;;;;;;;1.08;0.50;;;11.30;99.90;;;;;;4976055;28;20216;-76
2021/03/29 02:18:20;;;;;;;0.20;0.20;;;11.20;99.90;;;;;;4975819;28;20189;-75
2021/03/29 02:20:47;;;;;;;0.40;0.40;;;11.10;99.90;;;;;;4958474;28;20174;-76
2021/03/29 02:23:15;;;;;;;2.75;1.27;;;11.10;99.90;;;;;;4958478;28;20233;-76
2021/03/29 02:25:44;;;;;;;0.43;0.43;;;11.00;99.90;;;;;;4975571;28;20181;-75
2021/03/29 02:28:09;;;;;;;0.40;0.40;;;11.00;99.90;;;;;;4975706;28;20194;-76
2021/03/29 02:30:39;;;;;;;0.75;0.65;;;11.00;99.90;;;;;;4975730;28;20689;-76
2021/03/29 02:33:07;;;;;;;4.45;0.80;;;11.00;99.90;;;;;;4975674;28;20166;-76
2021/03/29 02:35:35;;;;;;;0.30;0.30;;;11.10;99.90;;;;;;4975598;28;20614;-75
2021/03/29 02:38:01;;;;;;;0.32;0.32;;;11.10;99.90;;;;;;4975433;28;20256;-76
2021/03/29 02:40:27;;;;;;;0.65;0.65;;;11.10;99.90;;;;;;4975456;28;20173;-75
2021/03/29 02:42:59;;;;;;;0.30;0.30;;;11.10;99.90;;;;;;4958180;28;20162;-75
2021/03/29 02:45:27;;;;;;;2.05;0.70;;;11.10;99.90;;;;;;4975342;28;20180;-76
2021/03/29 02:47:56;;;;;;;0.30;0.30;;;11.00;99.90;;;;;;4975347;28;20201;-76
2021/03/29 02:50:24;;;;;;;0.20;0.20;;;11.00;99.90;;;;;;4975337;28;20180;-75
2021/03/29 02:52:56;;;;;;;1.35;1.25;;;11.00;99.90;;;;;;4975370;28;20162;-75
2021/03/29 02:55:23;;;;;;;0.38;0.38;;;11.00;99.90;;;;;;4975299;28;20161;-75
2021/03/29 02:57:52;;;;;;;1.08;0.55;;;11.00;99.90;;;;;;4957771;28;20209;-75
2021/03/29 03:00:22;;;;;;;0.20;0.20;;;10.90;99.90;;;;;;4975148;28;20634;-76
2021/03/29 03:02:49;;;;;;;1.13;0.95;;;11.00;99.90;;;;;;4975201;28;20166;-76
2021/03/29 03:05:15;;;;;;;0.65;0.65;;;11.00;99.90;;;;;;4975099;28;20162;-76
2021/03/29 03:07:41;;;;;;;2.47;0.65;;;10.90;99.90;;;;;;4974952;28;20178;-76
2021/03/29 03:10:09;;;;;;;1.38;1.00;;;10.90;99.90;;;;;;4975023;28;20289;-76
2021/03/29 03:12:36;;;;;;;0.20;0.20;;;10.90;99.90;;;;;;4957712;28;20170;-77
2021/03/29 03:15:06;;;;;;;0.22;0.22;;;11.00;99.90;;;;;;4974878;28;20225;-76
2021/03/29 03:17:33;;;;;;;0.32;0.32;;;11.10;99.90;;;;;;4974844;28;20213;-76
2021/03/29 03:19:59;;;;;;;0.40;0.40;;;11.20;99.90;;;;;;4957534;28;20173;-76
2021/03/29 03:22:25;;;;;;;1.40;1.30;;;11.00;99.90;;;;;;4974870;28;20173;-76
2021/03/29 03:24:51;;;;;;;0.30;0.30;;;11.00;99.90;;;;;;4974829;28;20166;-76
2021/03/29 03:27:16;;;;;;;0.30;0.30;;;11.00;99.90;;;;;;4974592;28;20532;-75
2021/03/29 03:29:43;;;;;;;0.20;0.20;;;11.10;99.90;;;;;;4957388;28;20161;-76
2021/03/29 03:32:18;;;;;;;0.77;0.77;;;11.00;99.90;;;;;;4975028;28;20174;-76
2021/03/29 03:34:44;;;;;;;2.92;0.52;;;11.00;99.90;;;;;;4974681;28;20166;-76
2021/03/29 03:37:19;;;;;;;9.80;0.73;;;11.00;99.90;;;;;;4973780;28;20214;-76
2021/03/29 03:39:46;;;;;;;0.25;0.25;;;10.90;99.90;;;;;;4974501;28;20184;-76
2021/03/29 03:42:13;;;;;;;0.32;0.20;;;10.80;99.90;;;;;;4957239;28;20181;-76
2021/03/29 03:44:40;;;;;;;0.40;0.40;;;10.80;99.90;;;;;;4974503;28;20525;-76
2021/03/29 03:47:06;;;;;;;0.98;0.73;;;10.70;99.90;;;;;;4974282;28;20225;-76
2021/03/29 03:49:34;;;;;;;0.85;0.60;;;10.80;99.90;;;;;;4974663;28;20171;-76
2021/03/29 03:52:00;;;;;;;0.52;0.52;;;10.70;99.90;;;;;;4974442;28;20253;-75
2021/03/29 03:54:27;;;;;;;4.15;1.17;;;10.60;99.90;;;;;;4974129;28;20182;-76
2021/03/29 03:56:54;;;;;;;0.95;0.63;;;10.70;99.90;;;;;;4974170;28;20784;-75
2021/03/29 03:59:20;;;;;;;0.30;0.30;;;10.70;99.90;;;;;;4974324;28;20158;-75
2021/03/29 04:02:06;;;;;;;0.25;0.25;;;10.70;99.90;;;;;;4973986;28;20240;-76
2021/03/29 04:04:32;;;;;;;0.20;0.20;;;10.70;99.90;;;;;;4973946;28;20633;-72
2021/03/29 04:06:59;;;;;;;0.20;0.20;;;10.70;99.90;;;;;;4956834;28;20185;-75
2021/03/29 04:09:52;;;;;;;0.85;0.85;;;10.70;99.90;;;;;;4956793;28;20602;-75
2021/03/29 04:12:12;;;;;;;0.73;0.70;;;10.70;99.90;;;;;;4973792;28;20633;-76
2021/03/29 04:14:38;;;;;;;1.30;0.60;;;10.60;99.90;;;;;;4974053;28;20565;-76
2021/03/29 04:17:05;;;;;;;0.65;0.40;;;10.50;99.90;;;;;;4974113;28;20221;-76
2021/03/29 04:19:31;;;;;;;0.40;0.40;;;10.50;99.90;;;;;;4974080;28;20598;-76
2021/03/29 04:21:56;;;;;;;0.85;0.65;;;10.60;99.90;;;;;;4974053;28;20170;-75
2021/03/29 04:24:22;;;;;;;0.50;0.47;;;10.60;99.90;;;;;;4974039;28;20650;-76
2021/03/29 04:26:48;;;;;;;0.30;0.30;;;10.70;99.90;;;;;;4973906;28;20273;-76
2021/03/29 04:29:14;;;;;;;1.10;1.00;;;10.70;99.90;;;;;;4973992;28;20182;-76
2021/03/29 04:31:40;;;;;;;0.45;0.45;;;10.70;99.90;;;;;;4969529;28;20221;-76
2021/03/29 04:34:05;;;;;;;0.93;0.93;;;10.60;99.90;;;;;;4963145;28;20186;-77
2021/03/29 04:36:31;;;;;;;0.30;0.30;;;10.50;99.90;;;;;;4956560;28;20600;-76
2021/03/29 04:38:56;;;;;;;0.47;0.47;;;10.40;99.90;;;;;;4973782;28;20176;-77
2021/03/29 04:41:22;;;;;;;0.73;0.73;;;10.50;99.90;;;;;;4952881;28;20236;-76
2021/03/29 04:43:48;;;;;;;0.93;0.93;;;10.40;99.90;;;;;;4955052;28;20238;-76
2021/03/29 04:46:13;;;;;;;5.47;0.68;;;10.60;99.90;;;;;;4954483;29;20304;-76
2021/03/29 04:48:39;;;;;;;0.30;0.30;;;10.50;99.90;;;;;;4955976;28;20206;-74
2021/03/29 04:51:05;;;;;;;0.50;0.50;;;10.50;99.90;;;;;;4958061;29;20181;-77
2021/03/29 04:53:31;;;;;;;0.30;0.30;;;10.40;99.90;;;;;;4958086;29;20171;-76
2021/03/29 04:55:56;;;;;;;3.95;1.00;;;10.60;99.90;;;;;;4958070;29;20162;-77
2021/03/29 04:58:22;;;;;;;0.75;0.75;;;10.50;99.90;;;;;;4957953;29;20198;-76
2021/03/29 05:00:48;;;;;;;1.10;1.00;;;10.50;99.90;;;;;;4957981;29;20166;-77
2021/03/29 05:03:13;;;;;;;0.47;0.47;;;10.30;99.90;;;;;;4957906;29;20171;-76
2021/03/29 05:05:39;;;;;;;0.20;0.20;;;10.40;99.90;;;;;;4958757;28;20222;-74
2021/03/29 05:08:05;;;;;;;0.15;0.15;;;10.50;99.90;;;;;;4965714;28;20582;-74
2021/03/29 05:10:31;;;;;;;0.20;0.20;;;10.50;99.90;;;;;;4950729;29;20251;-74
2021/03/29 05:12:57;;;;;;;0.40;0.40;;;10.70;99.90;;;;;;4975483;28;20634;-74
2021/03/29 05:15:24;;;;;;;0.70;0.70;;;10.60;99.90;;;;;;4968358;28;20220;-75
2021/03/29 05:17:49;;;;;;;2.17;0.70;;;10.50;99.90;;;;;;4976801;28;20216;-74
2021/03/29 05:20:15;;;;;;;1.65;0.63;;;10.70;99.90;;;;;;4976649;28;20538;-74
2021/03/29 05:22:40;;;;;;;0.30;0.30;;;10.40;99.90;;;;;;4976951;28;20220;-74
2021/03/29 05:25:06;;;;;;;0.80;0.80;;;10.40;99.90;;;;;;4976641;28;20174;-74
2021/03/29 05:27:32;;;;;;;0.20;0.20;;;10.50;99.90;;;;;;4976791;28;20645;-73
2021/03/29 05:29:58;;;;;;;4.95;0.57;;;10.60;99.90;;;;;;4976851;28;20178;-74
2021/03/29 05:32:25;;;;;;;0.30;0.30;;;10.60;99.90;;;;;;4976726;28;20154;-75
2021/03/29 05:34:54;;;;;;;0.38;0.38;;;10.60;99.90;;;;;;4976639;28;20225;-75
2021/03/29 05:37:21;;;;;;;1.30;0.85;;;10.50;99.90;;;;;;4959107;28;20300;-74
2021/03/29 05:39:49;;;;;;;0.30;0.30;;;10.50;99.90;;;;;;4976646;28;20638;-74
2021/03/29 05:42:16;;;;;;;0.80;0.80;;;10.60;99.90;;;;;;4972985;28;20582;-74
2021/03/29 05:44:42;;;;;;;0.38;0.38;;;10.60;99.90;;;;;;4969760;28;20178;-75
2021/03/29 05:47:07;;;;;;;0.52;0.50;;;10.50;99.90;;;;;;4969605;28;20292;-75
2021/03/29 05:49:34;;;;;;;0.45;0.45;;;10.50;99.90;;;;;;4975101;28;20174;-75
2021/03/29 05:52:00;;;;;;;0.55;0.32;;;10.50;99.90;;;;;;4968713;28;20181;-75
2021/03/29 05:54:26;;;;;;;0.63;0.63;;;10.40;99.90;;;;;;4972451;28;20598;-76
2021/03/29 05:56:52;;;;;;;1.15;1.10;;;10.50;99.90;;;;;;4975227;28;20241;-74
2021/03/29 05:59:20;;;;;;;0.30;0.30;;;10.60;99.90;;;;;;4972800;28;20232;-75
2021/03/29 06:01:50;;;;;;;0.50;0.50;;;10.70;99.90;;;;;;4975514;28;20312;-74
2021/03/29 06:04:46;;;;;;;0.55;0.55;;;10.70;99.90;;;;;;4962394;28;20179;-74
2021/03/29 06:07:26;;;;;;;0.77;0.77;;;10.80;99.90;;;;;;4971878;28;20267;-75
2021/03/29 06:09:55;;;;;;;0.25;0.25;;;10.80;99.90;;;;;;4958157;28;20166;-73
2021/03/29 06:12:22;;;;;;;0.55;0.55;;;10.80;99.90;;;;;;4961874;28;20536;-73
2021/03/29 06:14:58;;;;;;;0.60;0.60;;;10.90;99.90;;;;;;4956243;29;20209;-74
2021/03/29 06:17:23;;;;;;;1.55;0.80;;;10.90;99.90;;;;;;4956101;29;20224;-73
2021/03/29 06:19:53;;;;;;;0.30;0.30;;;10.90;99.90;;;;;;4956391;29;20178;-77
2021/03/29 06:22:33;;;;;;;0.85;0.82;;;10.80;99.90;;;;;;4939228;29;20532;-77
2021/03/29 06:25:09;;;;;;;0.95;0.60;;;10.90;99.90;;;;;;4957219;28;20459;-78
2021/03/29 06:27:57;;;;;;;0.38;0.38;;;10.90;99.90;;;;;;4940488;29;20693;-75
2021/03/29 06:30:31;;;;;;;0.55;0.55;;;11.00;99.90;;;;;;4956389;29;20189;-75
2021/03/29 06:33:05;;;;;;;0.82;0.82;;;11.10;99.90;;;;;;4959742;28;20193;-75
2021/03/29 06:35:34;;;;;;;1.75;1.52;;;11.10;99.90;;;;;;4965456;28;20640;-75
2021/03/29 06:38:24;;;;;;;0.35;0.35;;;11.20;99.90;;;;;;4975143;28;20592;-75
2021/03/29 06:40:52;;;;;;;0.52;0.52;;;11.10;99.90;;;;;;4956221;28;20638;-78
2021/03/29 06:43:19;;;;;;;0.52;0.50;;;11.10;99.90;;;;;;4955992;29;20257;-77
2021/03/29 06:45:45;;;;;;;1.00;1.00;;;11.10;99.90;;;;;;4938524;29;20178;-76
2021/03/29 06:48:28;;;;;;;4.78;1.45;;;11.40;99.90;;;;;;4955648;29;20218;-75
2021/03/29 06:51:19;;;;;;;0.20;0.20;;;11.40;99.90;;;;;;4955812;29;20166;-75
2021/03/29 06:53:51;;;;;;;8.45;1.10;;;11.60;99.90;;;;;;4938637;29;20544;-76
2021/03/29 06:56:39;;;;;;;0.30;0.30;;;11.50;99.90;;;;;;4955398;29;20203;-75
2021/03/29 06:59:04;;;;;;;0.20;0.20;;;11.40;99.90;;;;;;4938562;29;20639;-75
2021/03/29 07:01:36;;;;;;;3.35;1.45;;;11.40;99.90;;;;;;4955705;29;20170;-75
2021/03/29 07:04:02;;;;;;;0.50;0.50;;;11.40;99.90;;;;;;4938322;29;20178;-75
2021/03/29 07:06:30;;;;;;;2.30;1.20;;;11.40;99.90;;;;;;4955366;29;20154;-75
2021/03/29 07:11:29;;;;;;;1.15;1.05;;;11.60;99.90;;;;;;4954946;28;20186;-75
2021/03/29 07:13:57;;;;;;;4.32;1.52;;;11.60;99.90;;;;;;4939028;29;20198;-85
2021/03/29 07:16:25;;;;;;;0.60;0.60;;;11.60;99.90;;;;;;4938768;29;20214;-85
2021/03/29 07:18:54;;;;;;;1.63;1.20;;;11.60;99.90;;;;;;4935763;29;20269;-83
2021/03/29 07:21:21;;;;;;;0.77;0.63;;;11.70;99.90;;;;;;4935935;29;20178;-84
2021/03/29 07:23:46;;;;;;;0.30;0.30;;;11.80;99.90;;;;;;4939075;29;20222;-83
2021/03/29 07:26:27;;;;;;;0.75;0.52;;;11.90;99.90;;;;;;4935107;29;20626;-83
2021/03/29 07:28:54;;;;;;;0.73;0.73;;;12.00;99.90;;;;;;4955282;29;20281;-83
2021/03/29 07:31:41;;;;;;;0.52;0.52;;;12.10;99.90;;;;;;4938360;29;20261;-83
2021/03/29 07:34:07;;;;;;;4.03;0.95;;;12.10;99.90;;;;;;4955106;29;20177;-83
2021/03/29 07:36:41;;;;;;;0.20;0.20;;;12.00;99.90;;;;;;4954976;29;20198;-81
2021/03/29 07:39:07;;;;;;;2.13;1.48;;;12.00;99.90;;;;;;4937400;29;20195;-83
2021/03/29 07:41:33;;;;;;;0.43;0.35;;;12.10;99.90;;;;;;4937462;29;20512;-81
2021/03/29 07:44:19;;;;;;;0.60;0.60;;;12.20;99.90;;;;;;4938315;29;20195;-81
2021/03/29 07:46:48;;;;;;;0.77;0.77;;;12.20;99.90;;;;;;4955420;29;20292;-85
2021/03/29 07:49:43;;;;;;;4.75;1.55;;;12.30;99.90;;;;;;4938135;29;20181;-82
2021/03/29 07:52:35;;;;;;;1.33;0.57;;;12.40;99.90;;;;;;4968273;28;20212;-84
2021/03/29 07:55:14;;;;;;;0.50;0.50;;;12.30;99.90;;;;;;4956454;28;20192;-81
2021/03/29 07:57:46;;;;;;;1.98;0.40;;;12.30;99.90;;;;;;4956695;28;20210;-82
2021/03/29 08:00:31;;;;;;;0.60;0.60;;;12.60;99.90;;;;;;4957613;28;20173;-82
2021/03/29 08:03:11;;;;;;;0.90;0.90;;;12.80;99.90;;;;;;4974171;28;20158;-83
2021/03/29 08:05:41;;;;;;;1.55;1.13;;;12.90;99.90;;;;;;4956760;28;20583;-82
2021/03/29 08:08:25;;;;;;;0.43;0.40;;;12.90;99.90;;;;;;4956989;28;20201;-83
2021/03/29 08:11:05;;;;;;;0.40;0.40;;;12.90;99.90;;;;;;4956857;28;20188;-83
2021/03/29 08:13:52;;;;;;;0.28;0.28;;;12.90;99.90;;;;;;4956961;28;20621;-81
2021/03/29 08:16:28;;;;;;;0.68;0.68;;;13.00;99.90;;;;;;4956981;28;20300;-83
2021/03/29 08:21:52;;;;;;;0.43;0.43;;;13.30;99.90;;;;;;4974248;28;20240;-83
2021/03/29 08:24:28;;;;;;;0.60;0.60;;;13.40;99.90;;;;;;4959329;28;20177;-83
2021/03/29 08:26:56;;;;;;;0.57;0.57;;;13.50;99.90;;;;;;4978353;28;20221;-83
2021/03/29 08:29:29;;;;;;;2.13;1.30;;;13.60;99.90;;;;;;4984581;28;20154;-81
2021/03/29 08:32:00;;;;;;;1.00;1.00;;;13.50;99.90;;;;;;4978544;28;20178;-81
2021/03/29 08:34:27;;;;;;;0.50;0.50;;;13.60;99.90;;;;;;4978026;28;20716;-81
2021/03/29 08:37:00;;;;;;;2.65;1.48;;;13.70;99.90;;;;;;4960486;28;20240;-83
2021/03/29 08:39:30;;;;;;;0.50;0.50;;;13.60;99.90;;;;;;4960276;28;20253;-82
2021/03/29 08:41:57;;;;;;;1.00;1.00;;;13.70;99.90;;;;;;4960490;28;20177;-82
2021/03/29 08:44:23;;;;;;;1.45;0.85;;;13.90;99.90;;;;;;4960709;28;20700;-81
2021/03/29 08:46:50;;;;;;;0.50;0.50;;;14.10;99.90;;;;;;4977584;28;20226;-80
2021/03/29 08:49:17;;;;;;;0.85;0.47;;;14.10;99.90;;;;;;4977627;28;20242;-84
2021/03/29 08:51:42;;;;;;;1.55;1.08;;;14.30;99.90;;;;;;4960164;28;20205;-77
2021/03/29 08:54:10;;;;;;;0.77;0.40;;;14.40;99.90;;;;;;4977294;28;20205;-78
2021/03/29 08:56:44;;;;;;;0.50;0.50;;;14.50;99.90;;;;;;4977006;28;20598;-78
2021/03/29 08:59:10;;;;;;;0.77;0.60;;;14.60;99.90;;;;;;4977337;28;20154;-78
2021/03/29 09:01:39;;;;;;;0.52;0.52;;;14.70;99.90;;;;;;4976552;28;20162;-74
2021/03/29 09:04:06;;;;;;;0.30;0.30;;;15.00;99.90;;;;;;4976932;28;20176;-74
2021/03/29 09:06:32;;;;;;;4.53;1.75;;;15.10;99.90;;;;;;4959386;28;20177;-75
2021/03/29 09:09:09;;;;;;;0.52;0.52;;;15.20;99.90;;;;;;4976967;28;20154;-77
2021/03/29 09:11:46;;;;;;;0.55;0.55;;;15.30;99.90;;;;;;4977053;28;20174;-76
2021/03/29 09:14:15;;;;;;;0.43;0.40;;;15.50;99.90;;;;;;4976820;28;20165;-76
2021/03/29 09:16:43;;;;;;;0.17;0.17;;;15.60;99.90;;;;;;4977065;28;20276;-75
2021/03/29 09:19:16;;;;;;;0.30;0.30;;;15.50;99.90;;;;;;4976754;28;20177;-76
2021/03/29 09:21:43;;;;;;;1.00;0.50;;;15.40;99.90;;;;;;4979098;28;20244;-75
2021/03/29 09:24:26;;;;;;;0.75;0.75;;;15.50;99.90;;;;;;4976797;28;20174;-78
2021/03/29 09:27:01;;;;;;;3.03;0.60;;;15.50;99.90;;;;;;4976638;28;20571;-76
2021/03/29 09:29:35;;;;;;;0.30;0.30;;;15.70;99.90;;;;;;4976743;28;20173;-76
2021/03/29 09:32:17;;;;;;;7.32;0.93;;;15.70;99.90;;;;;;4976489;28;20184;-75
2021/03/29 09:34:47;;;;;;;0.98;0.55;;;15.80;99.90;;;;;;4975633;28;20162;-76
2021/03/29 09:37:22;;;;;;;1.65;0.70;;;15.80;99.90;;;;;;4958840;28;20213;-76
2021/03/29 09:39:58;;;;;;;0.45;0.45;;;16.00;99.90;;;;;;4976518;28;20161;-77
2021/03/29 09:42:55;;;;;;;0.20;0.20;;;16.00;99.90;;;;;;4976488;28;20170;-77
2021/03/29 09:45:26;;;;;;;0.20;0.20;;;16.10;99.90;;;;;;4976112;28;20216;-78
2021/03/29 09:48:04;;;;;;;0.80;0.70;;;16.20;99.90;;;;;;4976050;28;20222;-76
2021/03/29 09:50:35;;;;;;;1.45;1.10;;;16.40;99.90;;;;;;4953898;28;20181;-77
2021/03/29 09:53:09;;;;;;;1.73;0.57;;;16.60;99.90;;;;;;4965373;28;20660;-74
2021/03/29 09:55:48;;;;;;;0.65;0.30;;;16.80;99.90;;;;;;4975059;28;20181;-81
2021/03/29 09:58:20;;;;;;;0.30;0.30;;;17.00;99.90;;;;;;4957562;28;20341;-75
2021/03/29 10:00:46;;;;;;;3.15;0.93;;;17.00;99.90;;;;;;4956894;29;20577;-75
2021/03/29 10:03:19;;;;;;;0.52;0.52;;;17.10;99.90;;;;;;4964013;28;20174;-76
2021/03/29 10:05:46;;;;;;;0.32;0.32;;;17.10;99.90;;;;;;4975900;28;20507;-75
2021/03/29 10:08:22;;;;;;;1.77;1.52;;;17.20;99.90;;;;;;4975925;28;20210;-77
2021/03/29 10:10:59;;;;;;;1.08;0.93;;;17.20;99.90;;;;;;4976082;28;20197;-80
2021/03/29 10:13:32;;;;;;;10.52;0.80;;;17.20;99.90;;;;;;4975972;28;20176;-76
2021/03/29 10:16:14;;;;;;;1.42;1.33;;;17.30;99.90;;;;;;4975954;28;20237;-75
2021/03/29 10:18:39;;;;;;;0.15;0.15;;;17.20;99.90;;;;;;4975660;28;20230;-77
2021/03/29 10:21:06;;;;;;;0.70;0.43;;;17.20;99.90;;;;;;4975341;28;20166;-75
2021/03/29 10:23:32;;;;;;;0.43;0.43;;;17.20;99.90;;;;;;4961681;28;20590;-76
2021/03/29 10:26:30;;;;;;;44.08;2.40;;;17.20;99.90;;;;;;4955803;29;20170;-76
2021/03/29 10:29:05;;;;;;;0.45;0.45;;;17.20;99.90;;;;;;4939036;29;20177;-75
2021/03/29 10:31:34;;;;;;;0.73;0.73;;;17.30;99.90;;;;;;4955970;29;20174;-74
2021/03/29 10:34:00;;;;;;;0.30;0.30;;;17.30;99.90;;;;;;4956092;29;20241;-75
2021/03/29 10:36:28;;;;;;;5.75;0.70;;;17.30;99.70;;;;;;4955630;29;20230;-74
2021/03/29 10:38:54;;;;;;;2.00;0.80;;;17.40;99.90;;;;;;4955937;29;20235;-75
2021/03/29 10:41:21;;;;;;;0.60;0.60;;;17.40;98.70;;;;;;4955911;29;20167;-75
2021/03/29 10:43:47;;;;;;;0.88;0.50;;;17.50;98.60;;;;;;4955954;29;20170;-75
2021/03/29 10:46:13;;;;;;;0.30;0.30;;;17.60;99.10;;;;;;4955480;28;20230;-74
2021/03/29 10:48:39;;;;;;;1.55;0.38;;;17.60;97.50;;;;;;4956223;29;20194;-74
2021/03/29 10:51:06;;;;;;;0.63;0.63;;;17.70;98.10;;;;;;4955844;29;20225;-76
2021/03/29 10:53:33;;;;;;;0.38;0.38;;;17.80;97.20;;;;;;4955688;29;20174;-75
2021/03/29 10:55:59;;;;;;;0.40;0.40;;;18.00;95.80;;;;;;4955607;29;20631;-74
2021/03/29 10:58:24;;;;;;;8.75;2.13;;;17.90;95.10;;;;;;4955257;29;20201;-75
2021/03/29 11:00:50;;;;;;;12.02;0.28;;;17.90;96.20;;;;;;4955766;29;20630;-75
2021/03/29 11:03:16;;;;;;;5.90;1.48;;;18.00;95.80;;;;;;4955560;29;20250;-75
2021/03/29 11:05:41;;;;;;;0.63;0.63;;;17.90;96.70;;;;;;4955815;29;20233;-75
2021/03/29 11:08:07;;;;;;;0.93;0.93;;;17.80;95.30;;;;;;4955451;29;20700;-75
2021/03/29 11:10:33;;;;;;;2.45;0.68;;;17.90;95.60;;;;;;4955240;29;20171;-75
2021/03/29 11:13:00;;;;;;;1.17;0.57;;;17.90;94.70;;;;;;4960387;28;20185;-73
2021/03/29 11:15:28;;;;;;;0.47;0.32;;;17.90;95.40;;;;;;4967249;28;20193;-74
2021/03/29 11:17:53;;;;;;;0.30;0.30;;;17.90;95.10;;;;;;4974174;28;20691;-75
2021/03/29 11:20:19;;;;;;;0.47;0.47;;;17.90;95.10;;;;;;4974455;28;20162;-74
2021/03/29 11:22:46;;;;;;;2.80;1.20;;;18.10;95.30;;;;;;4970880;28;20186;-75
2021/03/29 11:25:13;;;;;;;0.52;0.52;;;18.00;94.60;;;;;;4963763;28;20260;-75
2021/03/29 11:27:38;;;;;;;0.75;0.75;;;18.00;95.30;;;;;;4961947;28;20194;-74
2021/03/29 11:30:09;;;;;;;0.77;0.77;;;18.00;93.90;;;;;;4958003;28;20190;-77
2021/03/29 11:32:38;;;;;;;0.32;0.32;;;18.10;94.30;;;;;;4959089;28;20170;-77
2021/03/29 11:35:05;;;;;;;1.02;0.85;;;18.20;94.50;;;;;;4937783;29;20694;-81
2021/03/29 11:37:32;;;;;;;1.00;0.47;;;18.20;93.90;;;;;;4955265;29;20215;-75
2021/03/29 11:39:58;;;;;;;0.55;0.55;;;18.20;93.40;;;;;;4954945;29;20190;-76
2021/03/29 11:42:24;;;;;;;0.30;0.30;;;18.20;93.20;;;;;;4954709;29;20162;-76
2021/03/29 11:44:49;;;;;;;0.77;0.57;;;18.30;93.10;;;;;;4954850;29;20194;-76
2021/03/29 11:47:15;;;;;;;0.35;0.35;;;18.20;93.20;;;;;;4954507;29;20313;-75
2021/03/29 11:49:41;;;;;;;6.13;0.90;;;18.30;92.40;;;;;;4940842;28;20173;-80
2021/03/29 11:52:07;;;;;;;0.47;0.47;;;18.20;92.80;;;;;;4968167;28;20196;-80
2021/03/29 11:54:33;;;;;;;0.32;0.32;;;18.30;93.50;;;;;;4972564;28;20236;-78
2021/03/29 11:56:59;;;;;;;1.75;1.05;;;18.40;92.30;;;;;;4963723;28;20218;-79
2021/03/29 11:59:26;;;;;;;0.30;0.30;;;18.50;92.10;;;;;;4964668;28;20197;-78
2021/03/29 12:02:01;;;;;;;0.10;0.10;;;18.40;92.10;;;;;;4961655;28;20174;-80
2021/03/29 12:04:37;;;;;;;1.17;0.88;;;18.30;92.80;;;;;;4968232;28;20243;-79
2021/03/29 12:11:50;;;;;;;1.83;0.93;;;18.50;92.60;;;;;;4972320;28;20193;-75
2021/03/29 12:12:45;;;;;;;0.45;0.45;;;18.60;92.50;;;;;;4958610;28;20704;-74
2021/03/29 12:15:12;;;;;;;2.33;0.95;;;18.50;92.10;;;;;;4965458;28;20174;-75
2021/03/29 12:17:40;;;;;;;0.28;0.28;;;18.70;92.30;;;;;;4938963;28;20277;-75
2021/03/29 12:20:07;;;;;;;0.90;0.90;;;18.90;92.60;;;;;;4946317;29;20230;-75
2021/03/29 12:22:35;;;;;;;0.50;0.50;;;18.90;92.00;;;;;;4956263;28;20178;-75
2021/03/29 12:25:01;;;;;;;3.10;0.85;;;18.90;91.80;;;;;;4954448;29;20163;-75
2021/03/29 12:27:28;;;;;;;0.30;0.30;;;18.90;91.80;;;;;;4954432;29;20200;-74
2021/03/29 12:29:55;;;;;;;2.33;0.80;;;18.90;91.30;;;;;;4954357;29;20166;-75
2021/03/29 12:32:23;;;;;;;1.67;1.00;;;18.90;91.00;;;;;;4954261;29;20163;-75
2021/03/29 12:34:58;;;;;;;4.88;0.98;;;18.90;91.00;;;;;;4972633;28;20678;-75
2021/03/29 12:37:28;;;;;;;0.55;0.43;;;18.90;91.40;;;;;;4972874;28;20205;-74
2021/03/29 12:40:01;;;;;;;0.57;0.57;;;18.90;90.90;;;;;;4956291;28;20229;-78
2021/03/29 12:42:33;;;;;;;0.63;0.63;;;18.80;91.30;;;;;;4973327;28;20251;-78
2021/03/29 12:44:59;;;;;;;0.65;0.57;;;18.80;91.30;;;;;;4973250;28;20158;-78
2021/03/29 12:47:26;;;;;;;0.35;0.35;;;18.90;91.50;;;;;;4973228;28;20256;-77
2021/03/29 12:49:53;;;;;;;0.85;0.73;;;18.90;91.40;;;;;;4973551;28;20564;-82
2021/03/29 12:52:19;;;;;;;0.60;0.55;;;18.90;90.80;;;;;;4973424;28;20166;-74
2021/03/29 12:54:45;;;;;;;3.40;0.75;;;18.80;91.40;;;;;;4973398;28;20253;-73
2021/03/29 12:57:11;;;;;;;0.73;0.63;;;18.90;90.90;;;;;;4973189;28;20210;-74
2021/03/29 12:59:36;;;;;;;0.85;0.85;;;18.90;90.80;;;;;;4973519;28;20167;-73
2021/03/29 13:02:03;;;;;;;0.65;0.65;;;18.90;92.20;;;;;;4973619;28;20172;-74
2021/03/29 13:04:32;;;;;;;0.60;0.60;;;18.90;91.40;;;;;;4973179;28;20182;-74
2021/03/29 13:12:21;;;;;;;0.55;0.45;;;19.20;90.20;;;;;;4977250;28;20181;-74